Chicora, Pennsylvania
Current Conditions -  °F | °C
As of 6:15 PM on Wednesday 17 Dec 2014 (Local Time) from KBTP Reporting Station
Overcast Overcast  
Wind Chill: 22°   Ceiling: 1900
Heat Index: 30°   Visibility: 10mi
Dew Point: 23°   Wind: 9mph
Humidity: 75%   Direction: 280°W
Pressure: 30.09"   Gusts: NA
Location:  40.95°N, 79.74°W
Report Text: KBTP 172315Z AUTO 28008KT 10SM OVC019 M01/M05 A3009 RMK AO1
Loading
Personal Weather Stations






























Interactive Weather Map New forecast layout! Learn more

10-Day Weather Forecast

Advertisements
Track Severe Weather on mobile